createdAt,value
2023-07-04T00:00:55.634Z,0.00
2023-07-04T00:01:56.620Z,0.00
2023-07-04T00:02:57.621Z,0.00
2023-07-04T00:03:58.596Z,0.00
2023-07-04T00:04:58.484Z,0.00
2023-07-04T00:05:07.079Z,0.00
2023-07-04T00:06:07.233Z,0.00
2023-07-04T00:07:08.144Z,0.00
2023-07-04T00:08:08.921Z,0.00
2023-07-04T00:09:09.006Z,0.00
2023-07-04T00:10:10.017Z,0.00
2023-07-04T00:11:10.962Z,0.00
2023-07-04T00:12:11.935Z,0.00
2023-07-04T00:13:12.113Z,0.00
2023-07-04T00:14:12.157Z,0.00
2023-07-04T00:15:13.014Z,0.00
2023-07-04T00:16:13.936Z,0.00
2023-07-04T00:17:14.856Z,0.00
2023-07-04T00:18:15.063Z,0.00
2023-07-04T00:19:14.991Z,0.00
2023-07-04T00:20:15.295Z,0.00
2023-07-04T00:21:16.153Z,0.00
2023-07-04T00:22:15.909Z,0.00
2023-07-04T00:23:16.560Z,0.00
2023-07-04T00:24:17.102Z,0.00
2023-07-04T00:25:17.170Z,0.00
2023-07-04T00:26:17.875Z,0.00
2023-07-04T00:27:17.966Z,0.00
2023-07-04T00:28:18.979Z,0.00
2023-07-04T00:29:19.745Z,0.00
2023-07-04T00:30:20.830Z,0.00
2023-07-04T00:31:20.823Z,0.00
2023-07-04T00:32:21.924Z,0.00
2023-07-04T00:33:22.072Z,0.00
2023-07-04T00:34:22.293Z,0.00
2023-07-04T00:35:22.573Z,0.00
2023-07-04T00:36:22.758Z,0.00
2023-07-04T00:37:22.765Z,0.00
2023-07-04T00:37:32.917Z,0.00
2023-07-04T00:38:33.869Z,0.00
2023-07-04T00:39:34.601Z,0.00
2023-07-04T00:40:35.179Z,0.00
2023-07-04T00:41:35.357Z,0.00
2023-07-04T00:42:35.323Z,0.00
2023-07-04T00:43:36.226Z,0.00
2023-07-04T00:44:36.253Z,0.00
2023-07-04T00:45:36.299Z,0.00
2023-07-04T00:46:37.699Z,0.00
2023-07-04T00:47:37.594Z,0.00
2023-07-04T00:48:37.511Z,0.00
2023-07-04T00:49:37.520Z,0.00
2023-07-04T00:50:37.599Z,0.00
2023-07-04T00:51:37.651Z,0.00
2023-07-04T00:52:37.748Z,0.00
2023-07-04T00:53:37.855Z,0.00
2023-07-04T00:54:38.819Z,0.00
2023-07-04T00:55:38.874Z,0.00
2023-07-04T00:56:38.930Z,0.00
2023-07-04T00:57:39.948Z,0.00
2023-07-04T00:58:39.908Z,0.00
2023-07-04T00:59:40.892Z,0.00
2023-07-04T01:00:41.792Z,0.00
2023-07-04T01:01:41.892Z,0.00
2023-07-04T01:02:42.096Z,0.00
2023-07-04T01:03:42.726Z,0.00
2023-07-04T01:04:43.515Z,0.00
2023-07-04T01:05:44.382Z,0.00
2023-07-04T01:06:44.445Z,0.00
2023-07-04T01:07:44.523Z,0.00
2023-07-04T01:08:45.005Z,0.00
2023-07-04T01:09:45.828Z,0.00
2023-07-04T01:09:57.968Z,0.00
2023-07-04T01:10:57.989Z,0.00
2023-07-04T01:11:58.668Z,0.00
2023-07-04T01:12:58.890Z,0.00
2023-07-04T01:14:00.087Z,0.00
2023-07-04T01:15:00.579Z,0.00
2023-07-04T01:16:00.727Z,0.00
2023-07-04T01:17:00.750Z,0.00
2023-07-04T01:18:01.105Z,0.00
2023-07-04T01:19:01.425Z,0.00
2023-07-04T01:20:01.607Z,0.00
2023-07-04T01:21:01.954Z,0.00
2023-07-04T01:22:02.840Z,0.00
2023-07-04T01:23:02.972Z,0.00
2023-07-04T01:24:03.724Z,0.00
2023-07-04T01:25:04.657Z,0.00
2023-07-04T01:26:04.723Z,0.00
2023-07-04T01:27:04.808Z,0.00
2023-07-04T01:28:04.917Z,0.00
2023-07-04T01:29:04.962Z,0.00
2023-07-04T01:30:12.998Z,0.00
2023-07-04T01:31:05.347Z,0.00
2023-07-04T01:32:06.351Z,0.00
2023-07-04T01:33:07.184Z,0.00
2023-07-04T01:34:07.167Z,0.00
2023-07-04T01:35:08.022Z,0.00
2023-07-04T01:36:08.975Z,0.00
2023-07-04T01:37:09.805Z,0.00
2023-07-04T01:38:10.719Z,0.00
2023-07-04T01:39:11.629Z,0.00
2023-07-04T01:40:12.463Z,0.00
2023-07-04T01:41:12.838Z,0.00
2023-07-04T01:41:23.472Z,0.00
2023-07-04T01:42:24.387Z,0.00
2023-07-04T01:43:25.356Z,0.00
2023-07-04T01:44:25.435Z,0.00
2023-07-04T01:45:26.385Z,0.00
2023-07-04T01:46:27.350Z,0.00
2023-07-04T01:47:27.511Z,0.00
2023-07-04T01:48:28.297Z,0.00
2023-07-04T01:49:29.218Z,0.00
2023-07-04T01:50:30.064Z,0.00
2023-07-04T01:51:30.154Z,0.00
2023-07-04T01:52:30.604Z,0.00
2023-07-04T01:53:31.381Z,0.00
2023-07-04T01:54:32.260Z,0.00
2023-07-04T01:55:32.345Z,0.00
2023-07-04T01:56:33.305Z,0.00
2023-07-04T01:57:34.165Z,0.00
2023-07-04T01:58:34.964Z,0.00
2023-07-04T01:59:35.799Z,0.00
2023-07-04T02:00:35.946Z,0.00
2023-07-04T02:01:35.985Z,0.00
2023-07-04T02:02:37.041Z,0.00
2023-07-04T02:03:37.999Z,0.00
2023-07-04T02:04:38.652Z,0.00
2023-07-04T02:05:39.469Z,0.00
2023-07-04T02:06:40.359Z,0.00
2023-07-04T02:07:41.274Z,0.00
2023-07-04T02:08:42.088Z,0.00
2023-07-04T02:09:42.889Z,0.00
2023-07-04T02:10:43.790Z,0.00
2023-07-04T02:11:43.813Z,0.05
2023-07-04T02:12:44.623Z,0.05
2023-07-04T02:12:53.692Z,0.05
2023-07-04T02:13:54.051Z,0.05
2023-07-04T02:14:54.305Z,0.05
2023-07-04T02:15:55.186Z,0.05
2023-07-04T02:16:56.081Z,0.05
2023-07-04T02:17:56.932Z,0.05
2023-07-04T02:18:58.916Z,0.05
2023-07-04T02:19:57.783Z,0.05
2023-07-04T02:20:58.639Z,0.05
2023-07-04T02:21:59.622Z,0.05
2023-07-04T02:23:00.510Z,0.05
2023-07-04T02:24:01.222Z,0.09
2023-07-04T02:25:02.100Z,0.09
2023-07-04T02:26:02.959Z,0.09
2023-07-04T02:27:03.884Z,0.14
2023-07-04T02:28:04.824Z,0.14
2023-07-04T02:29:05.692Z,0.18
2023-07-04T02:30:06.597Z,0.18
2023-07-04T02:31:07.614Z,0.18
2023-07-04T02:32:07.625Z,0.22
2023-07-04T02:33:08.433Z,0.27
2023-07-04T02:34:08.483Z,0.27
2023-07-04T02:35:09.332Z,0.27
2023-07-04T02:36:10.138Z,0.36
2023-07-04T02:37:11.101Z,0.41
2023-07-04T02:38:12.074Z,0.45
2023-07-04T02:39:12.928Z,0.54
2023-07-04T02:40:13.810Z,0.63
2023-07-04T02:41:14.594Z,0.72
2023-07-04T02:42:15.525Z,0.81
2023-07-04T02:43:15.673Z,0.90
2023-07-04T02:44:16.521Z,1.03
2023-07-04T02:44:25.134Z,1.08
2023-07-04T02:45:26.021Z,1.22
2023-07-04T02:46:26.902Z,1.39
2023-07-04T02:47:28.012Z,1.62
2023-07-04T02:48:28.579Z,1.80
2023-07-04T02:49:28.590Z,2.07
2023-07-04T02:50:28.744Z,2.38
2023-07-04T02:51:29.591Z,2.79
2023-07-04T02:52:30.324Z,3.15
2023-07-04T02:53:31.193Z,3.56
2023-07-04T02:54:31.587Z,4.05
2023-07-04T02:55:32.328Z,4.72
2023-07-04T02:56:33.051Z,5.40
2023-07-04T02:57:33.871Z,6.21
2023-07-04T02:58:34.646Z,7.07
2023-07-04T02:59:35.336Z,8.10
2023-07-04T03:00:36.166Z,9.31
2023-07-04T03:01:37.063Z,10.57
2023-07-04T03:02:38.042Z,12.06
2023-07-04T03:03:38.799Z,13.68
2023-07-04T03:04:39.495Z,15.48
2023-07-04T03:05:40.242Z,17.46
2023-07-04T03:06:40.514Z,19.71
2023-07-04T03:07:40.626Z,22.05
2023-07-04T03:08:41.330Z,24.66
2023-07-04T03:09:42.048Z,27.54
2023-07-04T03:10:42.934Z,30.78
2023-07-04T03:11:43.766Z,34.20
2023-07-04T03:12:44.606Z,38.16
2023-07-04T03:13:45.367Z,42.30
2023-07-04T03:14:45.390Z,46.44
2023-07-04T03:15:46.173Z,51.48
2023-07-04T03:15:54.871Z,52.20
2023-07-04T03:16:55.636Z,57.24
2023-07-04T03:17:56.529Z,62.64
2023-07-04T03:18:57.251Z,68.76
2023-07-04T03:19:57.387Z,74.88
2023-07-04T03:20:58.186Z,81.72
2023-07-04T03:21:58.206Z,88.56
2023-07-04T03:22:59.126Z,95.76
2023-07-04T03:23:59.877Z,104.40
2023-07-04T03:25:00.836Z,113.04
2023-07-04T03:26:01.538Z,122.40
2023-07-04T03:27:02.418Z,132.48
2023-07-04T03:28:03.162Z,142.56
2023-07-04T03:29:03.218Z,154.80
2023-07-04T03:30:03.652Z,166.32
2023-07-04T03:31:04.624Z,178.56
2023-07-04T03:32:05.466Z,191.52
2023-07-04T03:33:06.535Z,205.92
2023-07-04T03:34:07.308Z,220.32
2023-07-04T03:35:08.068Z,236.16
2023-07-04T03:36:08.839Z,252.00
2023-07-04T03:37:09.552Z,267.84
2023-07-04T03:38:10.584Z,285.12
2023-07-04T03:39:11.326Z,303.84
2023-07-04T03:40:12.204Z,321.12
2023-07-04T03:41:12.921Z,341.28
2023-07-04T03:42:13.683Z,360.00
2023-07-04T03:43:14.564Z,380.16
2023-07-04T03:44:15.433Z,397.44
2023-07-04T03:45:15.710Z,420.48
2023-07-04T03:46:16.470Z,440.64
2023-07-04T03:47:17.171Z,463.68
2023-07-04T03:47:25.902Z,466.56
2023-07-04T03:48:25.997Z,489.60
2023-07-04T03:49:26.773Z,509.76
2023-07-04T03:50:27.506Z,532.80
2023-07-04T03:51:28.198Z,558.72
2023-07-04T03:52:29.061Z,581.76
2023-07-04T03:53:29.842Z,604.80
2023-07-04T03:54:30.632Z,627.84
2023-07-04T03:55:31.603Z,653.76
2023-07-04T03:56:32.064Z,679.68
2023-07-04T03:57:32.876Z,705.60
2023-07-04T03:58:33.697Z,731.52
2023-07-04T03:59:34.476Z,760.32
2023-07-04T04:00:35.197Z,783.36
2023-07-04T04:01:35.343Z,812.16
2023-07-04T04:02:36.153Z,835.20
2023-07-04T04:03:37.006Z,864.00
2023-07-04T04:04:40.140Z,892.80
2023-07-04T04:05:38.521Z,921.60
2023-07-04T04:06:39.482Z,956.16
2023-07-04T04:07:40.340Z,984.96
2023-07-04T04:08:40.584Z,1146.24
2023-07-04T04:09:41.378Z,1180.80
2023-07-04T04:10:42.322Z,1221.12
2023-07-04T04:11:43.122Z,1267.20
2023-07-04T04:12:43.219Z,1307.52
2023-07-04T04:13:44.193Z,1347.84
2023-07-04T04:14:44.846Z,1393.92
2023-07-04T04:15:45.638Z,1440.00
2023-07-04T04:16:45.852Z,1474.56
2023-07-04T04:17:46.654Z,1520.64
2023-07-04T04:18:47.624Z,1555.20
2023-07-04T04:19:47.747Z,1601.28
2023-07-04T04:19:56.460Z,1601.28
2023-07-04T04:20:56.549Z,1647.36
2023-07-04T04:21:57.376Z,1831.68
2023-07-04T04:22:58.167Z,2223.36
2023-07-04T04:23:58.170Z,2430.72
2023-07-04T04:24:59.168Z,2476.80
2023-07-04T04:25:59.940Z,2522.88
2023-07-04T04:27:00.858Z,2615.04
2023-07-04T04:28:01.781Z,2684.16
2023-07-04T04:29:02.093Z,2799.36
2023-07-04T04:30:04.402Z,2914.56
2023-07-04T04:31:03.097Z,2972.16
2023-07-04T04:32:03.408Z,3064.32
2023-07-04T04:33:04.386Z,3179.52
2023-07-04T04:34:05.215Z,3317.76
2023-07-04T04:35:06.071Z,3456.00
2023-07-04T04:36:06.265Z,3594.24
2023-07-04T04:37:07.096Z,3617.28
2023-07-04T04:38:07.263Z,3548.16
2023-07-04T04:39:07.590Z,3594.24
2023-07-04T04:40:08.444Z,3640.32
2023-07-04T04:41:09.204Z,3732.48
2023-07-04T04:42:10.026Z,3801.60
2023-07-04T04:43:10.850Z,3985.92
2023-07-04T04:44:11.721Z,4101.12
2023-07-04T04:45:11.740Z,4331.52
2023-07-04T04:46:12.673Z,4308.48
2023-07-04T04:47:13.503Z,4469.76
2023-07-04T04:48:14.376Z,4584.96
2023-07-04T04:49:15.281Z,4654.08
2023-07-04T04:50:16.099Z,4654.08
2023-07-04T04:50:24.766Z,4654.08
2023-07-04T04:51:25.530Z,4746.24
2023-07-04T04:52:25.795Z,4815.36
2023-07-04T04:53:26.593Z,4861.44
2023-07-04T04:54:27.378Z,4838.40
2023-07-04T04:55:28.086Z,4792.32
2023-07-04T04:56:28.801Z,4769.28
2023-07-04T04:57:28.943Z,4723.20
2023-07-04T04:58:29.795Z,4792.32
2023-07-04T04:59:30.597Z,4930.56
2023-07-04T05:00:31.257Z,5045.76
2023-07-04T05:01:32.290Z,5230.08
2023-07-04T05:02:33.173Z,5345.28
2023-07-04T05:03:34.077Z,5575.68
2023-07-04T05:04:34.701Z,5760.00
2023-07-04T05:05:35.420Z,5875.20
2023-07-04T05:06:35.703Z,5944.32
2023-07-04T05:07:36.454Z,5944.32
2023-07-04T05:08:36.739Z,6082.56
2023-07-04T05:09:37.024Z,6174.72
2023-07-04T05:10:37.822Z,6266.88
2023-07-04T05:11:38.810Z,6312.96
2023-07-04T05:12:38.825Z,6312.96
2023-07-04T05:13:39.181Z,6405.12
2023-07-04T05:14:39.542Z,6497.28
2023-07-04T05:15:39.852Z,6497.28
2023-07-04T05:16:40.329Z,6681.60
2023-07-04T05:17:40.518Z,6773.76
2023-07-04T05:18:40.517Z,6958.08
2023-07-04T05:19:41.363Z,6865.92
2023-07-04T05:20:42.219Z,7234.56
2023-07-04T05:21:43.172Z,7234.56
2023-07-04T05:22:44.153Z,7280.64
2023-07-04T05:22:53.849Z,7280.64
2023-07-04T05:23:54.413Z,7326.72
2023-07-04T05:24:54.401Z,7418.88
2023-07-04T05:25:55.385Z,7326.72
2023-07-04T05:26:56.168Z,7372.80
2023-07-04T05:27:56.856Z,7464.96
2023-07-04T05:28:56.898Z,7557.12
2023-07-04T05:29:57.156Z,7695.36
2023-07-04T05:30:57.808Z,7833.60
2023-07-04T05:31:58.046Z,7925.76
2023-07-04T05:32:58.964Z,8110.08
2023-07-04T05:33:59.934Z,8202.24
2023-07-04T05:35:00.220Z,8294.40
2023-07-04T05:36:01.176Z,8432.64
2023-07-04T05:37:01.283Z,8570.88
2023-07-04T05:38:01.844Z,8893.44
2023-07-04T05:39:01.875Z,9216.00
2023-07-04T05:40:01.954Z,9400.32
2023-07-04T05:41:02.658Z,9492.48
2023-07-04T05:42:02.830Z,9492.48
2023-07-04T05:43:03.700Z,9262.08
2023-07-04T05:44:04.682Z,9400.32
2023-07-04T05:45:04.709Z,9630.72
2023-07-04T05:46:04.854Z,9538.56
2023-07-04T05:47:05.539Z,9584.64
2023-07-04T05:48:06.290Z,9861.12
2023-07-04T05:49:07.201Z,9907.20
2023-07-04T05:50:08.096Z,9861.12
2023-07-04T05:51:08.859Z,10045.44
2023-07-04T05:52:09.709Z,9907.20
2023-07-04T05:53:10.673Z,9768.96
2023-07-04T05:54:11.528Z,9815.04
2023-07-04T05:54:20.668Z,9768.96
2023-07-04T05:55:21.595Z,10091.52
2023-07-04T05:56:22.179Z,9999.36
2023-07-04T05:57:23.028Z,10045.44
2023-07-04T05:58:23.077Z,10229.76
2023-07-04T05:59:24.050Z,10321.92
2023-07-04T06:00:24.107Z,10275.84
2023-07-04T06:01:24.914Z,10414.08
2023-07-04T06:02:25.722Z,10506.24
2023-07-04T06:03:26.562Z,10828.80
2023-07-04T06:04:27.174Z,11013.12
2023-07-04T06:05:27.964Z,11197.44
2023-07-04T06:06:28.872Z,11289.60
2023-07-04T06:07:29.733Z,11473.92
2023-07-04T06:08:30.577Z,11658.24
2023-07-04T06:09:31.569Z,11796.48
2023-07-04T06:10:31.598Z,11796.48
2023-07-04T06:11:32.385Z,11980.80
2023-07-04T06:12:32.433Z,12165.12
2023-07-04T06:13:32.589Z,12349.44
2023-07-04T06:14:32.584Z,12625.92
2023-07-04T06:15:33.633Z,12902.40
2023-07-04T06:16:34.479Z,12994.56
2023-07-04T06:17:35.521Z,13086.72
2023-07-04T06:18:35.730Z,13178.88
2023-07-04T06:19:35.752Z,13639.68
2023-07-04T06:20:36.155Z,13731.84
2023-07-04T06:21:43.852Z,14376.96
2023-07-04T06:22:37.224Z,15943.68
2023-07-04T06:23:38.174Z,17971.20
2023-07-04T06:24:38.946Z,18063.36
2023-07-04T06:25:39.922Z,19353.60
2023-07-04T06:25:48.543Z,19353.60
2023-07-04T06:26:48.986Z,19537.92
2023-07-04T06:27:49.143Z,18524.16
2023-07-04T06:28:49.940Z,16220.16
2023-07-04T06:29:50.747Z,14837.76
2023-07-04T06:30:51.910Z,14745.60
2023-07-04T06:31:52.698Z,14837.76
2023-07-04T06:32:53.379Z,15022.08
2023-07-04T06:33:53.980Z,15206.40
2023-07-04T06:34:54.775Z,15390.72
2023-07-04T06:35:54.903Z,15390.72
2023-07-04T06:36:55.646Z,15851.52
2023-07-04T06:37:56.489Z,15575.04
2023-07-04T06:38:57.428Z,15482.88
2023-07-04T06:39:58.180Z,16496.64
2023-07-04T06:40:59.021Z,16773.12
2023-07-04T06:41:59.737Z,17141.76
2023-07-04T06:43:00.576Z,16957.44
2023-07-04T06:44:01.436Z,17141.76
2023-07-04T06:45:02.255Z,16404.48
2023-07-04T06:46:03.208Z,17326.08
2023-07-04T06:47:04.106Z,18708.48
2023-07-04T06:48:04.189Z,20459.52
2023-07-04T06:49:04.654Z,21381.12
2023-07-04T06:50:05.458Z,22026.24
2023-07-04T06:51:06.425Z,21657.60
2023-07-04T06:52:08.380Z,19722.24
2023-07-04T06:53:07.577Z,17418.24
2023-07-04T06:54:08.743Z,17141.76
2023-07-04T06:55:09.307Z,17326.08
2023-07-04T06:56:09.912Z,17141.76
2023-07-04T06:56:18.584Z,17510.40
2023-07-04T06:57:20.245Z,17694.72
2023-07-04T06:58:19.443Z,17786.88
2023-07-04T06:59:20.302Z,17694.72
2023-07-04T07:00:21.286Z,17510.40
2023-07-04T07:01:21.405Z,17510.40
2023-07-04T07:02:21.572Z,17602.56
2023-07-04T07:03:22.433Z,17786.88
2023-07-04T07:04:22.534Z,17879.04
2023-07-04T07:05:24.264Z,17971.20
2023-07-04T07:06:23.556Z,18155.52
2023-07-04T07:07:24.428Z,18063.36
2023-07-04T07:08:25.291Z,18247.68
2023-07-04T07:09:26.080Z,18616.32
2023-07-04T07:10:26.988Z,18892.80
2023-07-04T07:11:27.040Z,18984.96
2023-07-04T07:12:27.100Z,18708.48
2023-07-04T07:13:27.206Z,18800.64
2023-07-04T07:14:27.444Z,19814.40
2023-07-04T07:15:27.844Z,19998.72
2023-07-04T07:16:28.267Z,20183.04
2023-07-04T07:17:28.307Z,20183.04
2023-07-04T07:18:28.598Z,19998.72
2023-07-04T07:19:29.539Z,20643.84
2023-07-04T07:20:30.366Z,21288.96
2023-07-04T07:21:31.332Z,21657.60
2023-07-04T07:22:31.543Z,21841.92
2023-07-04T07:23:31.587Z,18892.80
2023-07-04T07:24:32.306Z,21104.64
2023-07-04T07:25:31.772Z,21381.12
2023-07-04T07:26:32.521Z,22118.40
2023-07-04T07:27:32.563Z,22487.04
2023-07-04T07:27:42.470Z,22118.40
2023-07-04T07:28:43.538Z,22026.24
2023-07-04T07:29:44.112Z,22487.04
2023-07-04T07:30:43.628Z,21196.80
2023-07-04T07:31:44.219Z,22763.52
2023-07-04T07:32:45.197Z,23132.16
2023-07-04T07:33:46.693Z,23408.64
2023-07-04T07:34:45.902Z,23316.48
2023-07-04T07:35:46.099Z,23777.28
2023-07-04T07:36:46.239Z,23961.60
2023-07-04T07:37:47.151Z,11888.64
2023-07-04T07:38:47.383Z,24514.56
2023-07-04T07:39:47.474Z,23132.16
2023-07-04T07:40:47.772Z,25067.52
2023-07-04T07:41:47.786Z,25436.16
2023-07-04T07:42:48.495Z,25067.52
2023-07-04T07:43:48.578Z,15298.56
2023-07-04T07:44:48.864Z,24698.88
2023-07-04T07:45:49.780Z,23961.60
2023-07-04T07:46:49.950Z,11381.76
2023-07-04T07:47:50.878Z,23316.48
2023-07-04T07:48:50.842Z,24330.24
2023-07-04T07:49:51.853Z,24145.92
2023-07-04T07:50:52.191Z,23132.16
2023-07-04T07:51:51.947Z,24330.24
2023-07-04T07:52:51.957Z,24145.92
2023-07-04T07:53:52.924Z,25436.16
2023-07-04T07:54:53.152Z,26173.44
2023-07-04T07:55:54.064Z,25620.48
2023-07-04T07:56:54.133Z,14008.32
2023-07-04T07:57:54.883Z,25436.16
2023-07-04T07:58:04.520Z,26910.72
2023-07-04T07:59:05.258Z,26910.72
2023-07-04T08:00:06.123Z,26173.44
2023-07-04T08:01:06.960Z,27832.32
2023-07-04T08:02:07.105Z,28016.64
2023-07-04T08:03:07.806Z,30044.16
2023-07-04T08:04:08.727Z,28385.28
2023-07-04T08:05:09.604Z,28938.24
2023-07-04T08:06:10.405Z,28569.60
2023-07-04T08:07:10.514Z,27832.32
2023-07-04T08:08:11.408Z,29491.20
2023-07-04T08:09:12.367Z,29306.88
2023-07-04T08:10:13.232Z,30597.12
2023-07-04T08:11:13.994Z,30597.12
2023-07-04T08:12:14.869Z,31703.04
2023-07-04T08:13:15.700Z,31150.08
2023-07-04T08:14:16.444Z,31150.08
2023-07-04T08:15:17.222Z,31334.40
2023-07-04T08:16:18.157Z,26726.40
2023-07-04T08:17:18.299Z,31334.40
2023-07-04T08:18:18.762Z,31703.04
2023-07-04T08:19:19.600Z,32071.68
2023-07-04T08:20:20.517Z,32808.96
2023-07-04T08:21:20.951Z,33177.60
2023-07-04T08:22:21.055Z,33361.92
2023-07-04T08:23:21.976Z,32993.28
2023-07-04T08:24:22.870Z,33914.88
2023-07-04T08:25:25.591Z,34836.48
2023-07-04T08:26:23.883Z,35389.44
2023-07-04T08:27:24.682Z,35020.80
2023-07-04T08:28:25.411Z,35389.44
2023-07-04T08:28:34.053Z,33177.60
2023-07-04T08:29:34.950Z,35020.80
2023-07-04T08:30:35.887Z,34652.16
2023-07-04T08:31:36.019Z,35758.08
2023-07-04T08:32:36.988Z,33177.60
2023-07-04T08:33:37.848Z,35020.80
2023-07-04T08:34:38.625Z,37048.32
2023-07-04T08:35:38.679Z,36864.00
2023-07-04T08:36:38.862Z,36679.68
2023-07-04T08:37:38.916Z,35758.08
2023-07-04T08:38:39.774Z,36311.04
2023-07-04T08:39:40.366Z,36495.36
2023-07-04T08:40:41.169Z,36495.36
2023-07-04T08:41:41.953Z,37416.96
2023-07-04T08:42:42.887Z,34652.16
2023-07-04T08:43:43.134Z,36126.72
2023-07-04T08:44:43.907Z,37048.32
2023-07-04T08:45:44.841Z,38522.88
2023-07-04T08:46:45.676Z,38154.24
2023-07-04T08:47:45.831Z,38707.20
2023-07-04T08:48:46.606Z,38707.20
2023-07-04T08:49:47.602Z,38891.52
2023-07-04T08:50:48.441Z,38891.52
2023-07-04T08:51:49.267Z,39444.48
2023-07-04T08:52:49.286Z,38891.52
2023-07-04T08:53:49.550Z,39260.16
2023-07-04T08:54:50.459Z,39260.16
2023-07-04T08:55:51.809Z,39813.12
2023-07-04T08:56:52.325Z,39997.44
2023-07-04T08:57:52.359Z,39260.16
2023-07-04T08:58:53.335Z,39813.12
2023-07-04T08:59:53.730Z,40181.76
2023-07-04T09:00:54.855Z,39260.16
2023-07-04T09:01:03.314Z,39628.80
2023-07-04T09:02:03.800Z,39628.80
2023-07-04T09:03:04.885Z,39813.12
2023-07-04T09:04:05.479Z,39628.80
2023-07-04T09:05:05.547Z,39260.16
2023-07-04T09:06:05.594Z,39444.48
2023-07-04T09:07:06.471Z,39444.48
2023-07-04T09:08:07.392Z,39260.16
2023-07-04T09:09:07.437Z,39997.44
2023-07-04T09:10:08.770Z,40919.04
2023-07-04T09:11:08.733Z,39813.12
2023-07-04T09:12:09.497Z,41472.00
2023-07-04T09:13:09.699Z,42577.92
2023-07-04T09:14:10.593Z,43130.88
2023-07-04T09:15:11.527Z,41103.36
2023-07-04T09:16:12.631Z,41287.68
2023-07-04T09:17:13.419Z,40181.76
2023-07-04T09:18:22.444Z,43683.84
2023-07-04T09:19:15.133Z,43868.16
2023-07-04T09:20:15.901Z,44052.48
2023-07-04T09:21:16.814Z,44236.80
2023-07-04T09:22:17.622Z,44605.44
2023-07-04T09:23:18.406Z,45158.40
2023-07-04T09:24:18.449Z,45895.68
2023-07-04T09:25:18.880Z,45895.68
2023-07-04T09:26:18.920Z,45342.72
2023-07-04T09:27:19.828Z,46264.32
2023-07-04T09:28:19.880Z,46448.64
2023-07-04T09:29:20.191Z,46817.28
2023-07-04T09:30:20.303Z,47185.92
2023-07-04T09:31:20.408Z,47185.92
2023-07-04T09:31:29.146Z,47185.92
2023-07-04T09:32:29.942Z,47185.92
2023-07-04T09:33:30.860Z,47554.56
2023-07-04T09:34:31.207Z,47923.20
2023-07-04T09:35:31.650Z,48291.84
2023-07-04T09:36:31.888Z,48660.48
2023-07-04T09:37:31.954Z,48660.48
2023-07-04T09:38:32.259Z,47923.20
2023-07-04T09:39:33.207Z,48291.84
2023-07-04T09:40:33.479Z,49397.76
2023-07-04T09:41:35.052Z,49029.12
2023-07-04T09:42:46.077Z,49397.76
2023-07-04T09:43:36.020Z,49029.12
2023-07-04T09:44:36.948Z,49029.12
2023-07-04T09:45:37.183Z,49029.12
2023-07-04T09:46:37.937Z,49029.12
2023-07-04T09:47:38.823Z,49029.12
2023-07-04T09:48:39.585Z,49029.12
2023-07-04T09:49:40.473Z,49397.76
2023-07-04T09:50:41.437Z,49397.76
2023-07-04T09:51:41.867Z,49766.40
2023-07-04T09:52:42.038Z,49766.40
2023-07-04T09:53:42.976Z,49397.76
2023-07-04T09:54:43.920Z,48660.48
2023-07-04T09:55:44.765Z,49397.76
2023-07-04T09:56:44.768Z,49397.76
2023-07-04T09:57:45.786Z,50135.04
2023-07-04T09:58:46.586Z,50503.68
2023-07-04T09:59:46.692Z,50503.68
2023-07-04T10:00:47.668Z,50135.04
2023-07-04T10:01:48.549Z,50503.68
2023-07-04T10:02:00.043Z,50135.04
2023-07-04T10:03:00.475Z,50503.68
2023-07-04T10:04:01.037Z,50503.68
2023-07-04T10:05:01.526Z,50872.32
2023-07-04T10:06:02.462Z,50872.32
2023-07-04T10:07:03.500Z,51240.96
2023-07-04T10:08:04.070Z,51978.24
2023-07-04T10:09:05.009Z,51609.60
2023-07-04T10:10:05.900Z,51978.24
2023-07-04T10:11:05.981Z,52346.88
2023-07-04T10:12:06.920Z,52346.88
2023-07-04T10:13:07.807Z,52346.88
2023-07-04T10:14:08.582Z,52346.88
2023-07-04T10:15:09.281Z,49397.76
2023-07-04T10:16:09.527Z,51609.60
2023-07-04T10:17:10.483Z,51978.24
2023-07-04T10:18:10.779Z,51978.24
2023-07-04T10:19:11.274Z,51609.60
2023-07-04T10:20:11.455Z,51609.60
2023-07-04T10:21:11.780Z,51609.60
2023-07-04T10:22:12.154Z,51609.60
2023-07-04T10:23:13.006Z,51978.24
2023-07-04T10:24:13.018Z,51609.60
2023-07-04T10:25:13.885Z,51240.96
2023-07-04T10:26:14.742Z,53084.16
2023-07-04T10:27:15.647Z,53084.16
2023-07-04T10:28:16.449Z,53452.80
2023-07-04T10:29:17.305Z,52346.88
2023-07-04T10:30:17.555Z,54190.08
2023-07-04T10:31:18.471Z,54190.08
2023-07-04T10:32:19.349Z,53452.80
2023-07-04T10:33:20.017Z,53821.44
2023-07-04T10:33:28.704Z,54190.08
2023-07-04T10:34:29.676Z,54927.36
2023-07-04T10:35:30.377Z,55664.64
2023-07-04T10:36:30.902Z,55664.64
2023-07-04T10:37:31.038Z,55296.00
2023-07-04T10:38:31.305Z,39444.48
2023-07-04T10:39:31.523Z,54927.36
2023-07-04T10:40:31.708Z,54927.36
2023-07-04T10:41:33.789Z,55296.00
2023-07-04T10:42:33.487Z,55296.00
2023-07-04T10:43:34.430Z,54927.36
2023-07-04T10:44:34.756Z,54927.36
2023-07-04T10:45:38.037Z,54190.08
2023-07-04T10:46:35.557Z,55296.00
2023-07-04T10:47:36.280Z,53821.44
2023-07-04T10:48:36.594Z,54927.36
2023-07-04T10:49:36.836Z,54927.36
2023-07-04T10:50:37.578Z,55296.00
2023-07-04T10:51:38.564Z,55296.00
2023-07-04T10:52:39.448Z,54927.36
2023-07-04T10:53:40.204Z,54927.36
2023-07-04T10:54:41.087Z,55296.00
2023-07-04T10:55:41.848Z,55664.64
2023-07-04T10:56:42.795Z,56033.28
2023-07-04T10:57:43.267Z,55296.00
2023-07-04T10:58:43.374Z,56770.56
2023-07-04T10:59:44.245Z,56401.92
2023-07-04T11:00:45.059Z,57139.20
2023-07-04T11:01:46.069Z,45158.40
2023-07-04T11:02:47.020Z,16035.84
2023-07-04T11:03:47.799Z,28016.64
2023-07-04T11:04:47.960Z,58613.76
2023-07-04T11:05:47.952Z,57139.20
2023-07-04T11:05:57.631Z,57139.20
2023-07-04T11:06:57.794Z,56770.56
2023-07-04T11:07:58.785Z,56770.56
2023-07-04T11:08:59.531Z,56770.56
2023-07-04T11:10:00.497Z,57507.84
2023-07-04T11:11:00.490Z,57876.48
2023-07-04T11:12:00.560Z,51978.24
2023-07-04T11:13:01.430Z,58245.12
2023-07-04T11:14:02.289Z,58245.12
2023-07-04T11:15:03.176Z,58245.12
2023-07-04T11:16:04.134Z,58245.12
2023-07-04T11:17:05.169Z,57139.20
2023-07-04T11:18:05.993Z,57876.48
2023-07-04T11:19:06.037Z,58982.40
2023-07-04T11:20:06.089Z,57876.48
2023-07-04T11:21:06.925Z,57876.48
2023-07-04T11:22:09.584Z,56770.56
2023-07-04T11:23:08.610Z,56401.92
2023-07-04T11:24:09.438Z,54927.36
2023-07-04T11:25:10.276Z,56770.56
2023-07-04T11:26:11.193Z,57507.84
2023-07-04T11:27:12.149Z,57139.20
2023-07-04T11:28:12.944Z,57507.84
2023-07-04T11:29:13.911Z,58245.12
2023-07-04T11:30:14.794Z,57876.48
2023-07-04T11:31:15.440Z,58245.12
2023-07-04T11:32:15.782Z,57876.48
2023-07-04T11:33:15.793Z,58245.12
2023-07-04T11:34:16.063Z,58245.12
2023-07-04T11:35:16.334Z,58245.12
2023-07-04T11:36:16.515Z,58982.40
2023-07-04T11:37:16.820Z,59719.68
2023-07-04T11:37:26.483Z,60088.32
2023-07-04T11:38:27.183Z,60825.60
2023-07-04T11:39:27.833Z,59351.04
2023-07-04T11:40:28.563Z,60088.32
2023-07-04T11:41:29.424Z,19445.76
2023-07-04T11:42:29.795Z,60088.32
2023-07-04T11:43:30.656Z,60088.32
2023-07-04T11:44:31.669Z,60088.32
2023-07-04T11:45:32.568Z,59719.68
2023-07-04T11:46:33.343Z,59719.68
2023-07-04T11:47:34.288Z,58613.76
2023-07-04T11:48:35.205Z,58982.40
2023-07-04T11:49:36.093Z,58982.40
2023-07-04T11:50:36.980Z,58982.40
2023-07-04T11:51:36.928Z,58982.40
2023-07-04T11:52:37.842Z,57507.84
2023-07-04T11:53:39.985Z,57139.20
2023-07-04T11:54:38.107Z,58245.12
2023-07-04T11:55:39.009Z,59351.04
2023-07-04T11:56:39.042Z,58982.40
2023-07-04T11:57:39.883Z,58982.40
2023-07-04T11:58:40.220Z,58982.40
2023-07-04T11:59:41.243Z,57507.84
2023-07-04T12:00:41.266Z,58982.40
2023-07-04T12:01:41.324Z,57139.20